^^
Grace C. Lehan Memorial Weather Station Historical Data
Daily Summary for October 20, 2021 Units:  Metric    English   Both
Daily Weekly Monthly Yearly
  High: Low: Average:
Temperature: 24.5 °C 10.2 °C 17.4 °C
Dew Point: 13.8 °C 6.4 °C 10.6 °C
Humidity: 79.4% 47.3% 65%
Wind Speed: 9km/h 0km/h 2.6km/h
Wind Gust: 25.7km/h - -
Wind- - West
Pressure: 1014.4 hPa 1010.4 hPa -
Precipitation: 0 mm    
 
 
Tabular Data for October 20, 2021
Time Temperature Dew Point Pressure Wind Wind Speed Wind Gust Humidity Rainfall Rate (Hourly) solar
00:00 10.4 °C 6.9 °C 1010.7 hPa Calm     79% 0 mm 0 W/m2
00:09 10.3 °C 6.9 °C 1010.4 hPa Calm   1.6 km/h 79.4% 0 mm 0 W/m2
00:14 10.2 °C 6.7 °C 1010.4 hPa Calm   1.6 km/h 78.7% 0 mm 0 W/m2
00:19 10.3 °C 6.6 °C 1010.4 hPa Calm   1.6 km/h 77.7% 0 mm 0 W/m2
00:24 10.3 °C 6.4 °C 1010.4 hPa Calm   1.6 km/h 77% 0 mm 0 W/m2
00:29 10.4 °C 6.5 °C 1010.4 hPa WSW 0.3 km/h 3.2 km/h 76.4% 0 mm 0 W/m2
00:34 10.6 °C 6.5 °C 1010.4 hPa WSW 0.5 km/h 4.8 km/h 75.8% 0 mm 0 W/m2
00:39 10.8 °C 6.5 °C 1010.4 hPa SW 1.3 km/h 6.4 km/h 74.6% 0 mm 0 W/m2
00:44 11.1 °C 6.6 °C 1010.4 hPa WSW 0.3 km/h 6.4 km/h 73.7% 0 mm 0 W/m2
00:49 11.3 °C 6.6 °C 1010.4 hPa West 1.1 km/h 9.7 km/h 72.7% 0 mm 0 W/m2
00:54 11.6 °C 6.6 °C 1010.7 hPa West 1 km/h 11.3 km/h 71.6% 0 mm 0 W/m2
00:59 11.8 °C 6.7 °C 1010.4 hPa West 0.3 km/h 11.3 km/h 71% 0 mm 0 W/m2
01:04 12 °C 6.7 °C 1010.4 hPa West 1.6 km/h 11.3 km/h 70.1% 0 mm 0 W/m2
01:09 12.2 °C 6.8 °C 1010.4 hPa WSW 0.5 km/h 11.3 km/h 69.5% 0 mm 0 W/m2
01:14 12.3 °C 6.8 °C 1010.4 hPa WSW 0.8 km/h 11.3 km/h 69% 0 mm 0 W/m2
01:19 12.5 °C 6.8 °C 1010.4 hPa WSW 1 km/h 11.3 km/h 68.3% 0 mm 0 W/m2
01:24 12.6 °C 6.9 °C 1010.4 hPa WSW 0.6 km/h 11.3 km/h 68% 0 mm 0 W/m2
01:29 12.7 °C 6.9 °C 1010.4 hPa WSW 1 km/h 11.3 km/h 67.4% 0 mm 0 W/m2
01:34 12.8 °C 6.9 °C 1010.4 hPa WSW 0.5 km/h 11.3 km/h 67.3% 0 mm 0 W/m2
01:39 12.8 °C 6.9 °C 1010.4 hPa WSW 1.1 km/h 9.7 km/h 67% 0 mm 0 W/m2
01:44 12.9 °C 6.9 °C 1010.7 hPa WSW 0.5 km/h 9.7 km/h 67% 0 mm 0 W/m2
01:49 12.9 °C 6.9 °C 1010.7 hPa Calm   9.7 km/h 67% 0 mm 0 W/m2
01:54 12.9 °C 6.9 °C 1010.7 hPa Calm   9.7 km/h 67% 0 mm 0 W/m2
01:59 12.9 °C 6.9 °C 1010.7 hPa Calm   9.7 km/h 67% 0 mm 0 W/m2
02:04 12.8 °C 6.9 °C 1010.7 hPa WSW 0.2 km/h 9.7 km/h 67.1% 0 mm 0 W/m2
02:09 12.8 °C 7 °C 1010.7 hPa WSW 0.3 km/h 3.2 km/h 68% 0 mm 0 W/m2
02:14 12.7 °C 6.9 °C 1010.7 hPa WSW 0.5 km/h 4.8 km/h 68.1% 0 mm 0 W/m2
02:19 12.6 °C 7.1 °C 1010.7 hPa WSW 1.3 km/h 9.7 km/h 69% 0 mm 0 W/m2
02:24 12.5 °C 6.9 °C 1010.7 hPa WSW 1.9 km/h 9.7 km/h 69% 0 mm 0 W/m2
02:29 12.4 °C 7 °C 1010.7 hPa WSW 2.6 km/h 9.7 km/h 69.3% 0 mm 0 W/m2
02:34 12.4 °C 7.1 °C 1010.7 hPa WSW 1.4 km/h 9.7 km/h 70% 0 mm 0 W/m2
02:39 12.4 °C 7.1 °C 1010.7 hPa WSW 1.9 km/h 8 km/h 70% 0 mm 0 W/m2
02:44 12.4 °C 7.1 °C 1010.7 hPa SW 3.1 km/h 9.7 km/h 70% 0 mm 0 W/m2
02:49 12.3 °C 7 °C 1010.7 hPa WSW 2.7 km/h 9.7 km/h 70% 0 mm 0 W/m2
02:54 12.3 °C 7.1 °C 1010.7 hPa WSW 4.2 km/h 11.3 km/h 70.5% 0 mm 0 W/m2
02:59 12.3 °C 7.2 °C 1010.4 hPa WSW 3.9 km/h 11.3 km/h 71% 0 mm 0 W/m2
03:04 12.3 °C 7.2 °C 1010.4 hPa WSW 4.3 km/h 11.3 km/h 71% 0 mm 0 W/m2
03:09 12.3 °C 7.2 °C 1010.4 hPa WSW 4.2 km/h 14.5 km/h 71% 0 mm 0 W/m2
03:14 12.4 °C 7.3 °C 1010.4 hPa WSW 5 km/h 17.7 km/h 71% 0 mm 0 W/m2
03:19 12.4 °C 7.3 °C 1010.4 hPa WSW 5.3 km/h 17.7 km/h 71% 0 mm 0 W/m2
03:24 12.4 °C 7.3 °C 1010.4 hPa WSW 3.7 km/h 17.7 km/h 71% 0 mm 0 W/m2
03:29 12.4 °C 7.3 °C 1010.4 hPa WSW 6.3 km/h 17.7 km/h 71% 0 mm 0 W/m2
03:34 12.4 °C 7.3 °C 1010.4 hPa WSW 5.3 km/h 19.3 km/h 71% 0 mm 0 W/m2
03:39 12.3 °C 7.2 °C 1010.7 hPa West 5 km/h 19.3 km/h 71% 0 mm 0 W/m2
03:44 12.3 °C 7.4 °C 1010.7 hPa WSW 3.4 km/h 19.3 km/h 72% 0 mm 0 W/m2
03:49 12.3 °C 7.4 °C 1010.7 hPa WSW 5 km/h 19.3 km/h 72% 0 mm 0 W/m2
03:54 12.3 °C 7.4 °C 1010.7 hPa WSW 5.5 km/h 19.3 km/h 72.3% 0 mm 0 W/m2
03:59 12.3 °C 7.5 °C 1010.7 hPa WSW 6 km/h 19.3 km/h 72.5% 0 mm 0 W/m2
04:00 12.3 °C 7.6 °C 1010.7 hPa Calm   19.3 km/h 73% 0 mm 0 W/m2
04:09 12.2 °C 7.5 °C 1010.7 hPa WSW 2.9 km/h 8 km/h 73% 0 mm 0 W/m2
04:14 12.2 °C 7.5 °C 1010.7 hPa WSW 3.1 km/h 9.7 km/h 73.1% 0 mm 0 W/m2
04:19 12.1 °C 7.7 °C 1010.7 hPa WSW 4 km/h 11.3 km/h 74% 0 mm 0 W/m2
04:24 12.1 °C 7.6 °C 1010.7 hPa WSW 5.5 km/h 14.5 km/h 74% 0 mm 0 W/m2
04:29 12.2 °C 7.7 °C 1011.1 hPa WSW 3.9 km/h 14.5 km/h 74% 0 mm 0 W/m2
04:34 12.2 °C 7.7 °C 1011.1 hPa WSW 4.8 km/h 17.7 km/h 74% 0 mm 0 W/m2
04:39 12.2 °C 7.7 °C 1011.1 hPa WSW 5.5 km/h 17.7 km/h 74% 0 mm 0 W/m2
04:44 12.3 °C 7.8 °C 1011.1 hPa SW 3.4 km/h 17.7 km/h 74% 0 mm 0 W/m2
04:49 12.3 °C 7.8 °C 1011.1 hPa WSW 4.3 km/h 17.7 km/h 74% 0 mm 0 W/m2
04:54 12.3 °C 7.8 °C 1011.1 hPa WSW 6 km/h 17.7 km/h 74% 0 mm 0 W/m2
04:59 12.3 °C 7.8 °C 1011.1 hPa WSW 6.3 km/h 20.9 km/h 74% 0 mm 0 W/m2
05:04 12.4 °C 7.9 °C 1011.1 hPa WSW 6.9 km/h 20.9 km/h 74% 0 mm 0 W/m2
05:09 12.4 °C 7.9 °C 1011.1 hPa WSW 6.4 km/h 22.5 km/h 74% 0 mm 0 W/m2
05:14 12.5 °C 8.2 °C 1011.4 hPa WSW 6 km/h 22.5 km/h 75% 0 mm 0 W/m2
05:19 12.5 °C 8.3 °C 1011.4 hPa West 6.3 km/h 25.7 km/h 75.5% 0 mm 0 W/m2
05:24 12.5 °C 8.1 °C 1011.4 hPa WSW 5 km/h 25.7 km/h 74.4% 0 mm 0 W/m2
05:29 12.5 °C 8 °C 1011.4 hPa WSW 6.3 km/h 25.7 km/h 74% 0 mm 0 W/m2
05:34 12.5 °C 8 °C 1011.1 hPa WSW 5.3 km/h 25.7 km/h 74% 0 mm 0 W/m2
05:39 12.4 °C 8.1 °C 1011.1 hPa WSW 7.4 km/h 25.7 km/h 74.5% 0 mm 0 W/m2
05:44 12.5 °C 8.2 °C 1011.4 hPa WSW 7.6 km/h 25.7 km/h 75% 0 mm 0 W/m2
05:49 12.5 °C 8.2 °C 1011.4 hPa WSW 6.9 km/h 25.7 km/h 75% 0 mm 0 W/m2
05:54 12.6 °C 8.2 °C 1011.4 hPa WSW 6.4 km/h 25.7 km/h 74.5% 0 mm 0 W/m2
05:59 12.6 °C 8.2 °C 1011.4 hPa WSW 4.8 km/h 25.7 km/h 75% 0 mm 0 W/m2
06:04 12.6 °C 8.2 °C 1011.4 hPa WSW 7.2 km/h 25.7 km/h 75% 0 mm 0 W/m2
06:09 12.5 °C 8.2 °C 1011.4 hPa WSW 6.9 km/h 20.9 km/h 75% 0 mm 0 W/m2
06:14 12.5 °C 8.2 °C 1011.7 hPa WSW 6.4 km/h 20.9 km/h 75.2% 0 mm 0 W/m2
06:19 12.5 °C 8.4 °C 1011.7 hPa WSW 7.1 km/h 20.9 km/h 76% 0 mm 0 W/m2
06:24 12.5 °C 8.4 °C 1011.4 hPa WSW 5 km/h 20.9 km/h 76% 0 mm 0 W/m2
06:29 12.4 °C 8.3 °C 1011.4 hPa WSW 7.6 km/h 20.9 km/h 76% 0 mm 0 W/m2
06:34 12.5 °C 8.4 °C 1011.4 hPa WSW 9 km/h 22.5 km/h 76% 0 mm 0 W/m2
06:39 12.5 °C 8.4 °C 1011.4 hPa WSW 8.4 km/h 22.5 km/h 76% 0 mm 0 W/m2
06:44 12.6 °C 8.4 °C 1011.7 hPa WSW 7.6 km/h 22.5 km/h 76% 0 mm 0 W/m2
06:49 12.6 °C 8.4 °C 1011.7 hPa WSW 7.4 km/h 22.5 km/h 76% 0 mm 0 W/m2
06:54 12.6 °C 8.4 °C 1011.7 hPa WSW 6.9 km/h 22.5 km/h 76% 0 mm 0 W/m2
06:59 12.6 °C 8.4 °C 1011.7 hPa WSW 6.8 km/h 22.5 km/h 76% 0 mm 0 W/m2
07:04 12.6 °C 8.4 °C 1011.7 hPa WSW 7.2 km/h 22.5 km/h 76% 0 mm 0 W/m2
07:09 12.6 °C 8.4 °C 1011.7 hPa WSW 6.3 km/h 16.1 km/h 76% 0 mm 0 W/m2
07:14 12.5 °C 8.5 °C 1011.7 hPa WSW 6.9 km/h 24.1 km/h 76.6% 0 mm 5 W/m2
07:19 12.5 °C 8.6 °C 1011.7 hPa WSW 4.7 km/h 24.1 km/h 76.8% 0 mm 9 W/m2
07:24 12.6 °C 8.6 °C 1011.7 hPa WSW 6.9 km/h 24.1 km/h 76.7% 0 mm 16 W/m2
07:29 12.6 °C 8.7 °C 1011.7 hPa WSW 5.3 km/h 24.1 km/h 77% 0 mm 19 W/m2
07:34 12.6 °C 8.7 °C 1011.7 hPa WSW 5.1 km/h 24.1 km/h 77% 0 mm 26 W/m2
07:39 12.7 °C 8.8 °C 1011.7 hPa WSW 6.6 km/h 22.5 km/h 77% 0 mm 33 W/m2
07:44 12.8 °C 8.8 °C 1012.1 hPa WSW 6.3 km/h 22.5 km/h 76.7% 0 mm 39 W/m2
07:49 12.9 °C 8.8 °C 1012.1 hPa West 3.5 km/h 22.5 km/h 76% 0 mm 39 W/m2
07:54 13.1 °C 8.9 °C 1012.1 hPa WSW 3.5 km/h 22.5 km/h 76% 0 mm 47 W/m2
07:59 13.2 °C 9.1 °C 1012.1 hPa West 3.9 km/h 25.7 km/h 76% 0 mm 58 W/m2
08:09 13.6 °C 9.3 °C 1012.1 hPa WSW 6.3 km/h 24.1 km/h 75% 0 mm 60 W/m2
08:12 13.8 °C 9.4 °C 1012.1 hPa West 2.6 km/h 24.1 km/h 75% 0 mm 69 W/m2
08:30 14.4 °C 9.8 °C 1012.4 hPa West 4.8 km/h 24.1 km/h 74% 0 mm 75 W/m2
09:00 15.6 °C 10.3 °C 1012.8 hPa Calm   6.4 km/h 71% 0 mm 137 W/m2
09:30 16.2 °C 10.9 °C 1013.1 hPa Calm     71% 0 mm 159 W/m2
10:00 18.1 °C 11.9 °C 1013.1 hPa Calm   1.6 km/h 67% 0 mm 330 W/m2
10:30 19.3 °C 11.8 °C 1013.1 hPa Calm   8 km/h 62% 0 mm 309 W/m2
11:00 20.8 °C 12.2 °C 1013.4 hPa Calm   4.8 km/h 58% 0 mm 506 W/m2
11:30 21.9 °C 13 °C 1013.1 hPa Calm   6.4 km/h 57% 0 mm 335 W/m2
12:04 23 °C 13.6 °C 1013.1 hPa WSW 0.8 km/h 1.6 km/h 55.3% 0 mm 577 W/m2
12:09 23.1 °C 13.7 °C 1013.1 hPa WNW 2.7 km/h 11.3 km/h 55.7% 0 mm 577 W/m2
12:14 23.1 °C 13.4 °C 1013.1 hPa WNW 5 km/h 16.1 km/h 54.7% 0 mm 334 W/m2
12:19 23 °C 13.4 °C 1013.1 hPa WNW 4.3 km/h 16.1 km/h 54.7% 0 mm 171 W/m2
12:24 22.9 °C 13.3 °C 1013.1 hPa WNW 1.8 km/h 16.1 km/h 54.8% 0 mm 197 W/m2
12:29 22.8 °C 13.4 °C 1012.8 hPa WNW 1 km/h 16.1 km/h 55.2% 0 mm 244 W/m2
12:34 22.8 °C 13.4 °C 1012.8 hPa WNW 0.5 km/h 16.1 km/h 55.3% 0 mm 244 W/m2
12:39 22.9 °C 13.7 °C 1012.8 hPa West 2.7 km/h 12.9 km/h 56% 0 mm 591 W/m2
12:44 22.9 °C 13.6 °C 1012.8 hPa West 3.5 km/h 16.1 km/h 55.7% 0 mm 455 W/m2
12:49 22.9 °C 13.3 °C 1012.8 hPa WSW 2.6 km/h 16.1 km/h 54.5% 0 mm 267 W/m2
12:54 23 °C 13.8 °C 1012.8 hPa WSW 1.3 km/h 16.1 km/h 56.1% 0 mm 348 W/m2
12:59 23.1 °C 13.5 °C 1012.8 hPa WNW 4.5 km/h 16.1 km/h 54.8% 0 mm 113 W/m2
13:04 23.1 °C 13.4 °C 1012.4 hPa WNW 3.2 km/h 16.1 km/h 54.7% 0 mm 311 W/m2
13:09 23.1 °C 13.6 °C 1012.4 hPa WNW 3.5 km/h 12.9 km/h 55% 0 mm 199 W/m2
13:14 23.2 °C 13.6 °C 1012.4 hPa WSW 4.7 km/h 12.9 km/h 54.5% 0 mm 279 W/m2
13:19 23.3 °C 13.1 °C 1012.4 hPa West 5.8 km/h 17.7 km/h 52.5% 0 mm 279 W/m2
13:24 23.4 °C 13.2 °C 1012.4 hPa West 2.6 km/h 17.7 km/h 52.7% 0 mm 246 W/m2
13:29 23.4 °C 13.1 °C 1012.4 hPa West 6 km/h 17.7 km/h 52.3% 0 mm 142 W/m2
13:34 23.5 °C 13 °C 1012.4 hPa WNW 6.3 km/h 17.7 km/h 51.7% 0 mm 165 W/m2
13:39 23.5 °C 13.3 °C 1012.4 hPa WSW 4.5 km/h 17.7 km/h 52.5% 0 mm 425 W/m2
13:44 23.7 °C 13.2 °C 1012.4 hPa West 6.1 km/h 19.3 km/h 51.8% 0 mm 425 W/m2
13:49 23.7 °C 13.4 °C 1012.4 hPa WNW 5.5 km/h 20.9 km/h 52.4% 0 mm 229 W/m2
13:54 23.8 °C 13.1 °C 1012.4 hPa West 4 km/h 20.9 km/h 51.3% 0 mm 216 W/m2
13:59 23.8 °C 12.9 °C 1012.4 hPa West 8.5 km/h 20.9 km/h 50.3% 0 mm 211 W/m2
14:04 23.8 °C 13.1 °C 1012.4 hPa West 5.1 km/h 24.1 km/h 51.1% 0 mm 199 W/m2
14:09 23.9 °C 13.3 °C 1012.4 hPa WNW 8.2 km/h 24.1 km/h 51.3% 0 mm 241 W/m2
14:14 23.9 °C 12.9 °C 1012.4 hPa WNW 7.7 km/h 24.1 km/h 50% 0 mm 149 W/m2
14:19 23.9 °C 12.9 °C 1012.4 hPa West 7.7 km/h 24.1 km/h 50.3% 0 mm 197 W/m2
14:24 23.9 °C 13.2 °C 1012.4 hPa West 5.3 km/h 24.1 km/h 51.2% 0 mm 501 W/m2
14:29 24.1 °C 13.2 °C 1012.4 hPa West 4.5 km/h 24.1 km/h 50.6% 0 mm 501 W/m2
14:34 24.2 °C 13 °C 1012.4 hPa WNW 4.8 km/h 24.1 km/h 49.8% 0 mm 250 W/m2
14:39 24.2 °C 12.8 °C 1012.4 hPa WNW 6.4 km/h 16.1 km/h 49.1% 0 mm 120 W/m2
14:44 24.2 °C 12.9 °C 1012.4 hPa WNW 5 km/h 16.1 km/h 49.5% 0 mm 153 W/m2
14:49 24.3 °C 13.1 °C 1012.4 hPa WNW 1.9 km/h 16.1 km/h 49.5% 0 mm 105 W/m2
14:54 24.3 °C 13.2 °C 1012.4 hPa West 1.1 km/h 16.1 km/h 49.8% 0 mm 93 W/m2
14:59 24.3 °C 13.2 °C 1012.4 hPa West 2.9 km/h 16.1 km/h 49.6% 0 mm 91 W/m2
15:04 24.3 °C 13.1 °C 1012.4 hPa WSW 1.1 km/h 16.1 km/h 49.7% 0 mm 113 W/m2
15:09 24.1 °C 12.9 °C 1012.4 hPa West 3.5 km/h 9.7 km/h 49.7% 0 mm 113 W/m2
15:14 23.9 °C 13.1 °C 1012.4 hPa WNW 0.6 km/h 9.7 km/h 50.6% 0 mm 209 W/m2
15:19 23.9 °C 13.6 °C 1012.4 hPa West 1 km/h 9.7 km/h 52.3% 0 mm 244 W/m2
15:24 24.1 °C 13.3 °C 1012.4 hPa WNW 3.5 km/h 9.7 km/h 50.8% 0 mm 462 W/m2
15:29 24.3 °C 13.2 °C 1012.4 hPa WNW 2.4 km/h 9.7 km/h 50% 0 mm 367 W/m2
15:34 24.5 °C 13.1 °C 1012.8 hPa WNW 2.6 km/h 9.7 km/h 49% 0 mm 281 W/m2
15:39 24.5 °C 12.9 °C 1012.4 hPa West 3.5 km/h 9.7 km/h 48.5% 0 mm 109 W/m2
15:44 24.4 °C 12.7 °C 1012.4 hPa West 6 km/h 14.5 km/h 48% 0 mm 98 W/m2
15:49 24.4 °C 12.6 °C 1012.4 hPa WNW 2.6 km/h 14.5 km/h 47.8% 0 mm 86 W/m2
15:54 24.3 °C 12.8 °C 1012.4 hPa WNW 0.2 km/h 14.5 km/h 48.5% 0 mm 63 W/m2
15:59 24.3 °C 13.1 °C 1012.4 hPa WNW 1.9 km/h 14.5 km/h 49.6% 0 mm 46 W/m2
16:00 24.3 °C 12.9 °C 1012.4 hPa West 8 km/h 14.5 km/h 49% 0 mm 35 W/m2
16:09 24.1 °C 12.2 °C 1012.4 hPa WNW 6.4 km/h 17.7 km/h 47.3% 0 mm 32 W/m2
16:14 24.1 °C 12.2 °C 1012.4 hPa WNW 2.3 km/h 17.7 km/h 47.3% 0 mm 30 W/m2
16:19 23.9 °C 12.3 °C 1012.4 hPa WNW 3.7 km/h 17.7 km/h 48.2% 0 mm 30 W/m2
16:24 23.8 °C 12.3 °C 1012.4 hPa WNW 4.7 km/h 17.7 km/h 48.4% 0 mm 28 W/m2
16:29 23.8 °C 12.4 °C 1012.4 hPa West 2.6 km/h 17.7 km/h 48.9% 0 mm 28 W/m2
16:34 23.7 °C 12.3 °C 1012.4 hPa WNW 6.4 km/h 17.7 km/h 48.7% 0 mm 26 W/m2
16:39 23.7 °C 12.2 °C 1012.4 hPa WNW 4 km/h 16.1 km/h 48.5% 0 mm 26 W/m2
16:44 23.6 °C 12.2 °C 1012.4 hPa WNW 5.6 km/h 16.1 km/h 48.6% 0 mm 25 W/m2
16:49 23.5 °C 12.1 °C 1012.8 hPa WNW 5.6 km/h 16.1 km/h 48.5% 0 mm 25 W/m2
16:54 23.4 °C 11.9 °C 1012.8 hPa WNW 4 km/h 16.1 km/h 48.5% 0 mm 23 W/m2
16:59 23.3 °C 11.9 °C 1012.8 hPa WNW 2.6 km/h 16.1 km/h 48.5% 0 mm 23 W/m2
17:04 23.3 °C 12.2 °C 1012.4 hPa WNW 2.7 km/h 16.1 km/h 49.9% 0 mm 21 W/m2
17:09 23.2 °C 12.1 °C 1012.4 hPa WNW 2.3 km/h 9.7 km/h 49.5% 0 mm 21 W/m2
17:14 23.1 °C 12.2 °C 1012.8 hPa WSW 2.3 km/h 12.9 km/h 50.2% 0 mm 19 W/m2
17:19 22.9 °C 12.2 °C 1012.8 hPa West 2.6 km/h 17.7 km/h 50.5% 0 mm 19 W/m2
17:24 22.8 °C 12.1 °C 1012.8 hPa WNW 0.3 km/h 17.7 km/h 50.8% 0 mm 18 W/m2
17:29 22.8 °C 11.9 °C 1012.8 hPa WNW 1 km/h 17.7 km/h 50.4% 0 mm 16 W/m2
17:34 22.7 °C 11.9 °C 1012.8 hPa WNW 0.2 km/h 17.7 km/h 50.5% 0 mm 16 W/m2
17:39 22.6 °C 11.9 °C 1012.8 hPa WNW 0.3 km/h 4.8 km/h 51% 0 mm 14 W/m2
17:44 22.4 °C 11.8 °C 1012.8 hPa West 0.2 km/h 6.4 km/h 51% 0 mm 11 W/m2
17:49 22.2 °C 11.8 °C 1012.8 hPa Calm   6.4 km/h 51.6% 0 mm 9 W/m2
17:54 22.1 °C 11.8 °C 1012.8 hPa Calm   6.4 km/h 52% 0 mm 5 W/m2
17:59 21.9 °C 11.8 °C 1012.8 hPa Calm   6.4 km/h 52.8% 0 mm 5 W/m2
18:04 21.7 °C 11.9 °C 1012.8 hPa Calm   6.4 km/h 53.5% 0 mm 0 W/m2
18:09 21.5 °C 11.8 °C 1012.8 hPa Calm     54% 0 mm 0 W/m2
18:14 21.3 °C 11.6 °C 1013.1 hPa Calm     54% 0 mm 0 W/m2
18:19 21.1 °C 11.6 °C 1013.1 hPa Calm     54.5% 0 mm 0 W/m2
18:24 20.9 °C 11.7 °C 1013.1 hPa Calm     55.7% 0 mm 0 W/m2
18:29 20.7 °C 11.8 °C 1013.1 hPa Calm     56.9% 0 mm 0 W/m2
18:34 20.4 °C 11.9 °C 1013.1 hPa Calm     58.2% 0 mm 0 W/m2
18:39 20.2 °C 11.7 °C 1013.1 hPa Calm     58.3% 0 mm 0 W/m2
18:44 19.9 °C 11.8 °C 1013.1 hPa Calm     59.4% 0 mm 0 W/m2
18:49 19.7 °C 11.8 °C 1013.1 hPa Calm     60.3% 0 mm 0 W/m2
18:54 19.5 °C 11.9 °C 1013.1 hPa Calm     61.7% 0 mm 0 W/m2
18:59 19.3 °C 11.8 °C 1013.1 hPa Calm     62% 0 mm 0 W/m2
19:04 19.2 °C 11.8 °C 1013.4 hPa Calm     62.3% 0 mm 0 W/m2
19:09 19 °C 11.8 °C 1013.4 hPa Calm     63% 0 mm 0 W/m2
19:14 18.9 °C 11.9 °C 1013.4 hPa Calm     64% 0 mm 0 W/m2
19:19 18.8 °C 11.9 °C 1013.4 hPa Calm     64.4% 0 mm 0 W/m2
19:24 18.7 °C 11.9 °C 1013.4 hPa Calm     64.6% 0 mm 0 W/m2
19:29 18.7 °C 11.9 °C 1013.8 hPa Calm     65% 0 mm 0 W/m2
19:34 18.6 °C 12 °C 1013.4 hPa Calm     65.4% 0 mm 0 W/m2
19:39 18.5 °C 12.1 °C 1013.8 hPa Calm     66.3% 0 mm 0 W/m2
19:44 18.3 °C 12.1 °C 1013.8 hPa Calm   1.6 km/h 67% 0 mm 0 W/m2
19:49 18.2 °C 12 °C 1013.8 hPa Calm   1.6 km/h 67% 0 mm 0 W/m2
19:54 18.1 °C 11.9 °C 1013.4 hPa Calm   1.6 km/h 67% 0 mm 0 W/m2
19:59 17.9 °C 12 °C 1013.4 hPa Calm   1.6 km/h 68% 0 mm 0 W/m2
20:00 17.9 °C 12.2 °C 1013.4 hPa Calm   1.6 km/h 69% 0 mm 0 W/m2
20:09 17.8 °C 12.2 °C 1013.8 hPa Calm     70% 0 mm 0 W/m2
20:14 17.7 °C 12.2 °C 1013.4 hPa Calm     70.5% 0 mm 0 W/m2
20:19 17.6 °C 12.3 °C 1013.8 hPa Calm     71% 0 mm 0 W/m2
20:24 17.5 °C 12.2 °C 1013.4 hPa Calm   1.6 km/h 71% 0 mm 0 W/m2
20:29 17.4 °C 12.2 °C 1013.8 hPa Calm   1.6 km/h 71.4% 0 mm 0 W/m2
20:34 17.4 °C 12.3 °C 1013.8 hPa Calm   1.6 km/h 72% 0 mm 0 W/m2
20:39 17.4 °C 12.5 °C 1013.8 hPa Calm     73% 0 mm 0 W/m2
20:44 17.4 °C 12.6 °C 1013.8 hPa Calm     73% 0 mm 0 W/m2
20:49 17.4 °C 12.7 °C 1013.8 hPa Calm     73.8% 0 mm 0 W/m2
20:54 17.4 °C 12.8 °C 1013.8 hPa West 0.3 km/h 3.2 km/h 74% 0 mm 0 W/m2
20:59 17.5 °C 12.8 °C 1013.8 hPa West 0.2 km/h 3.2 km/h 74% 0 mm 0 W/m2
21:04 17.5 °C 12.8 °C 1013.8 hPa Calm   3.2 km/h 74% 0 mm 0 W/m2
21:09 17.6 °C 12.9 °C 1013.8 hPa Calm     74.5% 0 mm 0 W/m2
21:14 17.6 °C 13.1 °C 1013.8 hPa Calm     75% 0 mm 0 W/m2
21:19 17.6 °C 13.1 °C 1013.8 hPa Calm     75% 0 mm 0 W/m2
21:24 17.7 °C 13 °C 1014.1 hPa Calm     74.2% 0 mm 0 W/m2
21:29 17.7 °C 13 °C 1014.1 hPa Calm     74% 0 mm 0 W/m2
21:34 17.7 °C 13 °C 1014.1 hPa Calm   1.6 km/h 74% 0 mm 0 W/m2
21:39 17.7 °C 13 °C 1014.1 hPa Calm   1.6 km/h 74% 0 mm 0 W/m2
21:44 17.7 °C 12.9 °C 1014.1 hPa Calm   1.6 km/h 73.6% 0 mm 0 W/m2
21:49 17.7 °C 12.8 °C 1014.1 hPa Calm   1.6 km/h 73% 0 mm 0 W/m2
21:54 17.8 °C 12.9 °C 1014.1 hPa Calm   1.6 km/h 73% 0 mm 0 W/m2
21:59 17.8 °C 12.8 °C 1014.1 hPa Calm   1.6 km/h 72.7% 0 mm 0 W/m2
22:04 17.8 °C 12.7 °C 1014.1 hPa Calm   1.6 km/h 72% 0 mm 0 W/m2
22:09 17.8 °C 12.7 °C 1014.4 hPa Calm     72% 0 mm 0 W/m2
22:14 17.8 °C 12.7 °C 1014.4 hPa Calm     72% 0 mm 0 W/m2
22:19 17.8 °C 12.7 °C 1014.4 hPa Calm     72% 0 mm 0 W/m2
22:24 17.8 °C 12.7 °C 1014.4 hPa Calm     72% 0 mm 0 W/m2
22:29 17.8 °C 12.7 °C 1014.4 hPa Calm     72% 0 mm 0 W/m2
22:34 17.7 °C 12.6 °C 1014.4 hPa Calm     72% 0 mm 0 W/m2
22:39 17.7 °C 12.6 °C 1014.4 hPa Calm     72% 0 mm 0 W/m2
22:44 17.7 °C 12.7 °C 1014.4 hPa Calm     72.6% 0 mm 0 W/m2
22:49 17.7 °C 12.9 °C 1014.4 hPa Calm     73.7% 0 mm 0 W/m2
22:54 17.6 °C 12.9 °C 1014.4 hPa Calm     74% 0 mm 0 W/m2
22:59 17.4 °C 12.6 °C 1014.4 hPa Calm     73% 0 mm 0 W/m2
23:04 17.3 °C 12.5 °C 1014.4 hPa Calm     73% 0 mm 0 W/m2
23:09 17.3 °C 12.4 °C 1014.4 hPa Calm     73% 0 mm 0 W/m2
23:14 17.2 °C 12.3 °C 1014.4 hPa Calm     73% 0 mm 0 W/m2
23:19 17.1 °C 12.3 °C 1014.4 hPa Calm     73% 0 mm 0 W/m2
23:24 17.1 °C 12.2 °C 1014.4 hPa Calm     73% 0 mm 0 W/m2
23:29 17 °C 12.1 °C 1014.4 hPa Calm     73% 0 mm 0 W/m2
23:34 16.9 °C 12.1 °C 1014.4 hPa Calm     73% 0 mm 0 W/m2
23:39 16.8 °C 12 °C 1014.4 hPa Calm     73% 0 mm 0 W/m2
23:44 16.8 °C 11.9 °C 1014.4 hPa Calm     73% 0 mm 0 W/m2
23:49 16.8 °C 11.9 °C 1014.4 hPa Calm     73% 0 mm 0 W/m2
23:54 16.7 °C 11.9 °C 1014.4 hPa Calm     73% 0 mm 0 W/m2
23:59 16.8 °C 12 °C 1014.4 hPa West 0.2 km/h 4.8 km/h 73.5% 0 mm 0 W/m2
Hartford County Weather
Compliments of Weather Underground - 4 mb